sensor_id;sensor_type;location;lat;lon;timestamp;pressure;altitude;pressure_sealevel;temperature;humidity
49947;BME280;35839;48.662;13.300;2023-02-16T05:40:05;98497.78;;;-1.88;100.00
49947;BME280;35839;48.662;13.300;2023-02-16T05:42:31;98488.34;;;-1.59;100.00
49947;BME280;35839;48.662;13.300;2023-02-16T05:44:56;98486.84;;;-1.65;100.00
49947;BME280;35839;48.662;13.300;2023-02-16T05:47:22;98503.31;;;-1.44;100.00
49947;BME280;35839;48.662;13.300;2023-02-16T05:49:47;98503.59;;;-1.53;100.00
49947;BME280;35839;48.662;13.300;2023-02-16T05:52:12;98506.09;;;-1.23;100.00
49947;BME280;35839;48.662;13.300;2023-02-16T05:54:38;98502.81;;;-1.29;100.00
49947;BME280;35839;48.662;13.300;2023-02-16T05:57:04;98505.66;;;-1.38;100.00
49947;BME280;35839;48.662;13.300;2023-02-16T05:59:29;98509.31;;;-1.45;100.00
49947;BME280;35839;48.662;13.300;2023-02-16T06:01:54;98519.84;;;-1.26;100.00
49947;BME280;35839;48.662;13.300;2023-02-16T06:04:20;98506.28;;;-1.30;100.00
49947;BME280;35839;48.662;13.300;2023-02-16T06:06:46;98518.66;;;-1.42;100.00
49947;BME280;35839;48.662;13.300;2023-02-16T06:09:11;98514.44;;;-1.45;100.00
49947;BME280;35839;48.662;13.300;2023-02-16T06:11:43;98528.19;;;-1.46;100.00
49947;BME280;35839;48.662;13.300;2023-02-16T06:14:13;98527.31;;;-1.45;100.00
49947;BME280;35839;48.662;13.300;2023-02-16T06:16:41;98530.66;;;-1.43;100.00
49947;BME280;35839;48.662;13.300;2023-02-16T06:19:07;98532.72;;;-1.54;100.00
49947;BME280;35839;48.662;13.300;2023-02-16T06:21:35;98534.03;;;-1.41;100.00
49947;BME280;35839;48.662;13.300;2023-02-16T06:24:01;98520.63;;;-1.51;100.00
49947;BME280;35839;48.662;13.300;2023-02-16T06:26:26;98528.72;;;-1.35;100.00
49947;BME280;35839;48.662;13.300;2023-02-16T06:28:53;98529.69;;;-1.39;100.00
49947;BME280;35839;48.662;13.300;2023-02-16T06:31:19;98539.44;;;-1.50;100.00
49947;BME280;35839;48.662;13.300;2023-02-16T06:33:44;98534.69;;;-1.62;100.00
49947;BME280;35839;48.662;13.300;2023-02-16T06:36:10;98529.28;;;-1.53;100.00
49947;BME280;35839;48.662;13.300;2023-02-16T06:38:36;98530.28;;;-1.59;100.00
49947;BME280;35839;48.662;13.300;2023-02-16T06:41:01;98539.59;;;-1.55;100.00
49947;BME280;35839;48.662;13.300;2023-02-16T06:43:26;98543.50;;;-1.43;100.00
49947;BME280;35839;48.662;13.300;2023-02-16T06:45:52;98555.94;;;-1.57;100.00
49947;BME280;35839;48.662;13.300;2023-02-16T06:48:17;98552.25;;;-1.49;100.00
49947;BME280;35839;48.662;13.300;2023-02-16T06:50:42;98560.56;;;-1.40;100.00
49947;BME280;35839;48.662;13.300;2023-02-16T06:53:08;98566.91;;;-1.52;100.00
49947;BME280;35839;48.662;13.300;2023-02-16T06:55:33;98561.50;;;-1.43;100.00
49947;BME280;35839;48.662;13.300;2023-02-16T06:58:01;98566.75;;;-1.46;100.00
49947;BME280;35839;48.662;13.300;2023-02-16T07:00:27;98563.47;;;-1.51;100.00
49947;BME280;35839;48.662;13.300;2023-02-16T07:02:53;98567.75;;;-1.52;100.00
49947;BME280;35839;48.662;13.300;2023-02-16T07:05:19;98573.47;;;-1.42;100.00
49947;BME280;35839;48.662;13.300;2023-02-16T07:07:44;98570.66;;;-1.62;100.00
49947;BME280;35839;48.662;13.300;2023-02-16T07:10:09;98571.50;;;-1.34;100.00
49947;BME280;35839;48.662;13.300;2023-02-16T07:12:35;98559.56;;;-1.35;100.00
49947;BME280;35839;48.662;13.300;2023-02-16T07:15:00;98552.38;;;-1.25;100.00
49947;BME280;35839;48.662;13.300;2023-02-16T07:17:25;98570.81;;;-1.12;100.00
49947;BME280;35839;48.662;13.300;2023-02-16T07:19:51;98570.84;;;-1.40;100.00
49947;BME280;35839;48.662;13.300;2023-02-16T07:22:16;98562.16;;;-1.36;100.00
49947;BME280;35839;48.662;13.300;2023-02-16T07:24:42;98560.28;;;-1.31;100.00
49947;BME280;35839;48.662;13.300;2023-02-16T07:27:07;98565.34;;;-1.28;100.00
49947;BME280;35839;48.662;13.300;2023-02-16T07:29:33;98560.75;;;-1.18;100.00
49947;BME280;35839;48.662;13.300;2023-02-16T07:31:58;98562.63;;;-1.23;100.00
49947;BME280;35839;48.662;13.300;2023-02-16T07:34:23;98567.56;;;-1.17;100.00
49947;BME280;35839;48.662;13.300;2023-02-16T07:36:49;98564.41;;;-1.25;100.00
49947;BME280;35839;48.662;13.300;2023-02-16T07:39:14;98561.25;;;-1.07;100.00
49947;BME280;35839;48.662;13.300;2023-02-16T07:41:39;98570.63;;;-1.33;100.00
49947;BME280;35839;48.662;13.300;2023-02-16T07:44:05;98577.47;;;-1.33;100.00
49947;BME280;35839;48.662;13.300;2023-02-16T07:46:30;98575.47;;;-1.23;100.00
49947;BME280;35839;48.662;13.300;2023-02-16T07:48:56;98576.06;;;-1.15;100.00
49947;BME280;35839;48.662;13.300;2023-02-16T07:51:27;98562.34;;;-1.14;100.00
49947;BME280;35839;48.662;13.300;2023-02-16T07:53:53;98564.94;;;-1.16;100.00
49947;BME280;35839;48.662;13.300;2023-02-16T07:56:24;98562.63;;;-1.23;100.00
49947;BME280;35839;48.662;13.300;2023-02-16T07:58:52;98550.00;;;-1.31;100.00
49947;BME280;35839;48.662;13.300;2023-02-16T08:01:17;98559.84;;;-1.17;100.00
49947;BME280;35839;48.662;13.300;2023-02-16T08:03:43;98567.88;;;-1.00;100.00
49947;BME280;35839;48.662;13.300;2023-02-16T08:06:08;98572.13;;;-0.99;100.00
49947;BME280;35839;48.662;13.300;2023-02-16T08:08:35;98582.41;;;-0.99;100.00
49947;BME280;35839;48.662;13.300;2023-02-16T08:11:07;98581.09;;;-1.12;100.00
49947;BME280;35839;48.662;13.300;2023-02-16T08:13:33;98582.88;;;-0.86;100.00
49947;BME280;35839;48.662;13.300;2023-02-16T08:15:58;98581.16;;;-0.87;100.00
49947;BME280;35839;48.662;13.300;2023-02-16T08:18:23;98586.72;;;-0.99;100.00
49947;BME280;35839;48.662;13.300;2023-02-16T08:20:48;98589.78;;;-0.88;100.00
49947;BME280;35839;48.662;13.300;2023-02-16T08:23:14;98585.00;;;-0.72;100.00
49947;BME280;35839;48.662;13.300;2023-02-16T08:25:39;98589.53;;;-0.80;100.00
49947;BME280;35839;48.662;13.300;2023-02-16T08:28:04;98587.78;;;-0.80;100.00
49947;BME280;35839;48.662;13.300;2023-02-16T08:30:31;98595.47;;;-0.78;100.00
49947;BME280;35839;48.662;13.300;2023-02-16T08:32:58;98601.50;;;-0.53;100.00
49947;BME280;35839;48.662;13.300;2023-02-16T08:35:28;98599.25;;;-0.64;100.00
49947;BME280;35839;48.662;13.300;2023-02-16T08:37:57;98599.78;;;-0.54;100.00
49947;BME280;35839;48.662;13.300;2023-02-16T08:40:22;98585.09;;;-0.50;100.00
49947;BME280;35839;48.662;13.300;2023-02-16T08:42:49;98587.63;;;-0.49;100.00
49947;BME280;35839;48.662;13.300;2023-02-16T08:45:14;98607.78;;;-0.61;100.00
49947;BME280;35839;48.662;13.300;2023-02-16T08:47:40;98603.16;;;-0.77;100.00
49947;BME280;35839;48.662;13.300;2023-02-16T08:50:05;98598.44;;;-0.64;100.00
49947;BME280;35839;48.662;13.300;2023-02-16T08:52:31;98593.97;;;-0.59;100.00
49947;BME280;35839;48.662;13.300;2023-02-16T08:54:57;98607.25;;;-0.71;100.00
49947;BME280;35839;48.662;13.300;2023-02-16T08:57:22;98604.56;;;-0.68;100.00
49947;BME280;35839;48.662;13.300;2023-02-16T08:59:47;98592.44;;;-0.65;100.00
49947;BME280;35839;48.662;13.300;2023-02-16T09:02:33;98595.34;;;-0.75;100.00
49947;BME280;35839;48.662;13.300;2023-02-16T09:04:58;98598.00;;;-0.77;100.00
49947;BME280;35839;48.662;13.300;2023-02-16T09:07:23;98585.91;;;-0.75;100.00
49947;BME280;35839;48.662;13.300;2023-02-16T09:09:48;98592.34;;;-0.61;100.00
49947;BME280;35839;48.662;13.300;2023-02-16T09:12:14;98591.09;;;-0.50;100.00
49947;BME280;35839;48.662;13.300;2023-02-16T09:14:39;98600.72;;;-0.30;100.00
49947;BME280;35839;48.662;13.300;2023-02-16T09:17:05;98591.72;;;-0.18;100.00
49947;BME280;35839;48.662;13.300;2023-02-16T09:19:31;98598.97;;;-0.29;100.00
49947;BME280;35839;48.662;13.300;2023-02-16T09:21:57;98603.34;;;-0.31;100.00
49947;BME280;35839;48.662;13.300;2023-02-16T09:24:22;98616.94;;;-0.28;100.00
49947;BME280;35839;48.662;13.300;2023-02-16T09:26:47;98622.38;;;-0.12;100.00
49947;BME280;35839;48.662;13.300;2023-02-16T09:29:14;98616.00;;;-0.25;100.00
49947;BME280;35839;48.662;13.300;2023-02-16T09:31:40;98623.03;;;-0.30;100.00
49947;BME280;35839;48.662;13.300;2023-02-16T09:34:18;98603.59;;;-0.39;100.00
49947;BME280;35839;48.662;13.300;2023-02-16T09:36:45;98609.16;;;-0.26;100.00
49947;BME280;35839;48.662;13.300;2023-02-16T09:39:11;98611.88;;;-0.31;100.00
49947;BME280;35839;48.662;13.300;2023-02-16T09:42:14;98599.81;;;-0.29;100.00
49947;BME280;35839;48.662;13.300;2023-02-16T09:45:11;98602.59;;;-0.10;100.00
49947;BME280;35839;48.662;13.300;2023-02-16T09:47:40;98598.66;;;-0.20;100.00
49947;BME280;35839;48.662;13.300;2023-02-16T09:50:18;98601.59;;;-0.06;100.00
49947;BME280;35839;48.662;13.300;2023-02-16T09:55:24;98601.72;;;0.15;100.00
49947;BME280;35839;48.662;13.300;2023-02-16T09:58:17;98594.84;;;-0.10;100.00
49947;BME280;35839;48.662;13.300;2023-02-16T10:01:02;98590.91;;;0.05;100.00
49947;BME280;35839;48.662;13.300;2023-02-16T10:03:49;98597.38;;;0.17;100.00
49947;BME280;35839;48.662;13.300;2023-02-16T10:09:08;98607.53;;;0.20;100.00
49947;BME280;35839;48.662;13.300;2023-02-16T10:11:48;98607.41;;;0.23;100.00
49947;BME280;35839;48.662;13.300;2023-02-16T10:17:32;98603.50;;;0.36;100.00
49947;BME280;35839;48.662;13.300;2023-02-16T10:20:04;98594.75;;;0.64;100.00
49947;BME280;35839;48.662;13.300;2023-02-16T10:22:51;98591.03;;;0.49;100.00
49947;BME280;35839;48.662;13.300;2023-02-16T10:25:24;98601.91;;;0.56;100.00
49947;BME280;35839;48.662;13.300;2023-02-16T10:28:04;98593.00;;;0.65;100.00
49947;BME280;35839;48.662;13.300;2023-02-16T10:30:35;98599.69;;;0.47;100.00
49947;BME280;35839;48.662;13.300;2023-02-16T10:33:43;98602.50;;;0.40;100.00
49947;BME280;35839;48.662;13.300;2023-02-16T10:39:06;98590.91;;;0.52;100.00
49947;BME280;35839;48.662;13.300;2023-02-16T10:41:41;98581.09;;;0.38;100.00
49947;BME280;35839;48.662;13.300;2023-02-16T10:44:12;98583.03;;;0.33;100.00
49947;BME280;35839;48.662;13.300;2023-02-16T10:46:43;98577.53;;;0.43;100.00
49947;BME280;35839;48.662;13.300;2023-02-16T10:49:13;98580.94;;;0.65;100.00
49947;BME280;35839;48.662;13.300;2023-02-16T10:51:40;98579.28;;;0.86;100.00
49947;BME280;35839;48.662;13.300;2023-02-16T10:54:12;98589.06;;;0.78;100.00
49947;BME280;35839;48.662;13.300;2023-02-16T10:56:48;98582.53;;;0.69;100.00
49947;BME280;35839;48.662;13.300;2023-02-16T10:59:33;98579.94;;;0.69;100.00
49947;BME280;35839;48.662;13.300;2023-02-16T11:02:13;98583.19;;;0.74;100.00
49947;BME280;35839;48.662;13.300;2023-02-16T11:04:43;98577.00;;;0.78;100.00
49947;BME280;35839;48.662;13.300;2023-02-16T11:07:12;98587.19;;;0.81;100.00
49947;BME280;35839;48.662;13.300;2023-02-16T11:09:39;98583.88;;;1.00;100.00
49947;BME280;35839;48.662;13.300;2023-02-16T11:12:37;98585.41;;;0.83;100.00
49947;BME280;35839;48.662;13.300;2023-02-16T11:15:05;98576.00;;;0.82;100.00
49947;BME280;35839;48.662;13.300;2023-02-16T11:18:09;98573.94;;;0.91;100.00
49947;BME280;35839;48.662;13.300;2023-02-16T11:23:20;98575.44;;;0.74;100.00
49947;BME280;35839;48.662;13.300;2023-02-16T11:28:51;98570.53;;;1.12;100.00
49947;BME280;35839;48.662;13.300;2023-02-16T11:34:05;98564.47;;;1.34;100.00
49947;BME280;35839;48.662;13.300;2023-02-16T11:36:33;98562.03;;;1.31;100.00
49947;BME280;35839;48.662;13.300;2023-02-16T11:39:25;98564.88;;;1.45;100.00
49947;BME280;35839;48.662;13.300;2023-02-16T11:42:00;98559.81;;;1.62;100.00
49947;BME280;35839;48.662;13.300;2023-02-16T11:44:33;98565.31;;;0.48;100.00
49947;BME280;35839;48.662;13.300;2023-02-16T11:47:50;98558.66;;;0.42;100.00
49947;BME280;35839;48.662;13.300;2023-02-16T11:49:50;98557.75;;;0.65;100.00
49947;BME280;35839;48.662;13.300;2023-02-16T11:52:29;98544.75;;;0.68;100.00
49947;BME280;35839;48.662;13.300;2023-02-16T11:55:18;98540.00;;;1.01;100.00
49947;BME280;35839;48.662;13.300;2023-02-16T11:57:44;98535.06;;;0.95;100.00
49947;BME280;35839;48.662;13.300;2023-02-16T12:00:20;98539.53;;;0.92;100.00
49947;BME280;35839;48.662;13.300;2023-02-16T12:08:17;98539.72;;;0.43;100.00
49947;BME280;35839;48.662;13.300;2023-02-16T12:11:09;98530.91;;;0.71;100.00
49947;BME280;35839;48.662;13.300;2023-02-16T12:13:47;98524.72;;;1.17;100.00
49947;BME280;35839;48.662;13.300;2023-02-16T12:16:29;98534.59;;;1.08;100.00
49947;BME280;35839;48.662;13.300;2023-02-16T12:21:44;98513.31;;;1.64;100.00
49947;BME280;35839;48.662;13.300;2023-02-16T12:27:32;98497.88;;;1.42;100.00
49947;BME280;35839;48.662;13.300;2023-02-16T12:30:03;98491.06;;;1.41;100.00
49947;BME280;35839;48.662;13.300;2023-02-16T12:32:44;98491.06;;;1.41;100.00
49947;BME280;35839;48.662;13.300;2023-02-16T12:43:54;98491.75;;;1.44;100.00
49947;BME280;35839;48.662;13.300;2023-02-16T12:46:41;98486.91;;;1.57;100.00
49947;BME280;35839;48.662;13.300;2023-02-16T12:49:20;98480.56;;;1.64;100.00
49947;BME280;35839;48.662;13.300;2023-02-16T12:51:51;98489.88;;;1.48;100.00
49947;BME280;35839;48.662;13.300;2023-02-16T12:54:35;98485.06;;;1.80;100.00
49947;BME280;35839;48.662;13.300;2023-02-16T12:59:48;98479.63;;;2.24;100.00
49947;BME280;35839;48.662;13.300;2023-02-16T13:02:25;98468.25;;;1.90;100.00
49947;BME280;35839;48.662;13.300;2023-02-16T13:05:03;98469.00;;;2.11;100.00
49947;BME280;35839;48.662;13.300;2023-02-16T13:07:41;98455.72;;;2.19;100.00
49947;BME280;35839;48.662;13.300;2023-02-16T13:12:53;98458.50;;;2.33;100.00
49947;BME280;35839;48.662;13.300;2023-02-16T13:15:29;98461.59;;;2.22;100.00
49947;BME280;35839;48.662;13.300;2023-02-16T13:18:03;98458.59;;;2.13;100.00
49947;BME280;35839;48.662;13.300;2023-02-16T13:20:30;98461.97;;;2.15;100.00
49947;BME280;35839;48.662;13.300;2023-02-16T13:23:22;98443.91;;;2.32;100.00
49947;BME280;35839;48.662;13.300;2023-02-16T13:26:25;98441.41;;;2.11;100.00
49947;BME280;35839;48.662;13.300;2023-02-16T13:32:12;98436.81;;;2.18;100.00
49947;BME280;35839;48.662;13.300;2023-02-16T13:45:49;98438.44;;;2.02;100.00
49947;BME280;35839;48.662;13.300;2023-02-16T13:48:30;98427.09;;;2.04;100.00
49947;BME280;35839;48.662;13.300;2023-02-16T13:51:03;98426.25;;;2.23;100.00
49947;BME280;35839;48.662;13.300;2023-02-16T13:53:38;98419.72;;;2.33;100.00
49947;BME280;35839;48.662;13.300;2023-02-16T13:56:41;98422.13;;;2.19;100.00
49947;BME280;35839;48.662;13.300;2023-02-16T14:01:41;98431.38;;;2.05;100.00
49947;BME280;35839;48.662;13.300;2023-02-16T14:09:32;98424.69;;;2.01;100.00
49947;BME280;35839;48.662;13.300;2023-02-16T14:12:16;98419.09;;;1.92;100.00
49947;BME280;35839;48.662;13.300;2023-02-16T14:20:04;98422.94;;;1.83;100.00
49947;BME280;35839;48.662;13.300;2023-02-16T14:22:38;98428.88;;;1.85;100.00
49947;BME280;35839;48.662;13.300;2023-02-16T14:33:15;98425.53;;;1.64;100.00
49947;BME280;35839;48.662;13.300;2023-02-16T14:36:04;98428.66;;;1.52;100.00
49947;BME280;35839;48.662;13.300;2023-02-16T14:43:48;98430.53;;;1.48;100.00
49947;BME280;35839;48.662;13.300;2023-02-16T14:51:55;98430.69;;;1.64;100.00
49947;BME280;35839;48.662;13.300;2023-02-16T14:55:01;98438.69;;;1.77;100.00
49947;BME280;35839;48.662;13.300;2023-02-16T15:02:59;98434.94;;;1.84;100.00
49947;BME280;35839;48.662;13.300;2023-02-16T15:05:32;98424.53;;;1.66;100.00
49947;BME280;35839;48.662;13.300;2023-02-16T15:08:16;98423.56;;;1.69;100.00
49947;BME280;35839;48.662;13.300;2023-02-16T15:10:43;98416.66;;;1.69;100.00
49947;BME280;35839;48.662;13.300;2023-02-16T15:13:24;98412.66;;;1.62;100.00
49947;BME280;35839;48.662;13.300;2023-02-16T15:15:54;98412.25;;;1.72;100.00
49947;BME280;35839;48.662;13.300;2023-02-16T15:18:22;98410.59;;;1.71;100.00
49947;BME280;35839;48.662;13.300;2023-02-16T15:20:50;98410.03;;;1.64;100.00
49947;BME280;35839;48.662;13.300;2023-02-16T15:23:21;98407.81;;;1.56;100.00
49947;BME280;35839;48.662;13.300;2023-02-16T15:28:20;98407.34;;;1.65;100.00
49947;BME280;35839;48.662;13.300;2023-02-16T15:30:48;98404.84;;;1.83;100.00
49947;BME280;35839;48.662;13.300;2023-02-16T15:35:54;98396.31;;;1.24;100.00
49947;BME280;35839;48.662;13.300;2023-02-16T15:38:26;98403.50;;;1.36;100.00
49947;BME280;35839;48.662;13.300;2023-02-16T15:40:53;98401.63;;;1.40;100.00
49947;BME280;35839;48.662;13.300;2023-02-16T15:43:43;98400.72;;;1.41;100.00
49947;BME280;35839;48.662;13.300;2023-02-16T15:46:33;98401.50;;;1.43;100.00
49947;BME280;35839;48.662;13.300;2023-02-16T15:49:10;98400.41;;;1.28;100.00
49947;BME280;35839;48.662;13.300;2023-02-16T15:51:36;98398.41;;;1.35;100.00
49947;BME280;35839;48.662;13.300;2023-02-16T15:54:04;98396.44;;;1.40;100.00
49947;BME280;35839;48.662;13.300;2023-02-16T15:56:43;98400.56;;;1.44;100.00
49947;BME280;35839;48.662;13.300;2023-02-16T16:04:26;98398.16;;;1.41;100.00
49947;BME280;35839;48.662;13.300;2023-02-16T16:06:52;98390.41;;;1.41;100.00
49947;BME280;35839;48.662;13.300;2023-02-16T16:09:29;98403.69;;;1.71;100.00
49947;BME280;35839;48.662;13.300;2023-02-16T16:12:05;98401.72;;;1.57;100.00
49947;BME280;35839;48.662;13.300;2023-02-16T16:14:34;98397.91;;;1.26;100.00
49947;BME280;35839;48.662;13.300;2023-02-16T16:17:02;98404.66;;;1.10;100.00
49947;BME280;35839;48.662;13.300;2023-02-16T16:19:33;98411.63;;;1.08;100.00
49947;BME280;35839;48.662;13.300;2023-02-16T16:21:59;98411.84;;;1.22;100.00
49947;BME280;35839;48.662;13.300;2023-02-16T16:24:36;98407.75;;;1.37;100.00
49947;BME280;35839;48.662;13.300;2023-02-16T16:27:10;98409.06;;;1.27;100.00
49947;BME280;35839;48.662;13.300;2023-02-16T16:29:41;98419.34;;;1.29;100.00
49947;BME280;35839;48.662;13.300;2023-02-16T16:32:28;98418.13;;;0.96;100.00
49947;BME280;35839;48.662;13.300;2023-02-16T16:34:53;98412.25;;;0.93;100.00
49947;BME280;35839;48.662;13.300;2023-02-16T16:37:28;98415.34;;;0.80;100.00
49947;BME280;35839;48.662;13.300;2023-02-16T16:40:07;98420.38;;;0.83;100.00
49947;BME280;35839;48.662;13.300;2023-02-16T16:43:12;98416.69;;;0.69;100.00
49947;BME280;35839;48.662;13.300;2023-02-16T16:48:09;98422.19;;;0.61;100.00
49947;BME280;35839;48.662;13.300;2023-02-16T16:50:38;98423.19;;;0.57;100.00
49947;BME280;35839;48.662;13.300;2023-02-16T16:55:54;98419.78;;;0.34;100.00
49947;BME280;35839;48.662;13.300;2023-02-16T16:58:19;98422.56;;;0.08;100.00
49947;BME280;35839;48.662;13.300;2023-02-16T17:00:45;98415.41;;;-0.08;100.00
49947;BME280;35839;48.662;13.300;2023-02-16T17:03:15;98422.00;;;-0.01;100.00
49947;BME280;35839;48.662;13.300;2023-02-16T17:05:42;98422.91;;;0.20;100.00
49947;BME280;35839;48.662;13.300;2023-02-16T17:08:08;98423.78;;;0.21;100.00
49947;BME280;35839;48.662;13.300;2023-02-16T17:10:35;98420.50;;;0.16;100.00
49947;BME280;35839;48.662;13.300;2023-02-16T17:13:02;98431.53;;;0.41;100.00
49947;BME280;35839;48.662;13.300;2023-02-16T17:15:36;98431.75;;;0.79;100.00
49947;BME280;35839;48.662;13.300;2023-02-16T17:18:03;98428.66;;;0.27;100.00
49947;BME280;35839;48.662;13.300;2023-02-16T17:20:29;98427.66;;;0.31;100.00
49947;BME280;35839;48.662;13.300;2023-02-16T17:22:54;98415.63;;;0.10;100.00
49947;BME280;35839;48.662;13.300;2023-02-16T17:25:20;98418.81;;;0.16;100.00
49947;BME280;35839;48.662;13.300;2023-02-16T17:27:45;98421.94;;;0.23;100.00
49947;BME280;35839;48.662;13.300;2023-02-16T17:30:11;98418.63;;;0.21;100.00
49947;BME280;35839;48.662;13.300;2023-02-16T17:32:36;98423.47;;;0.29;100.00
49947;BME280;35839;48.662;13.300;2023-02-16T17:35:02;98434.84;;;0.23;100.00
49947;BME280;35839;48.662;13.300;2023-02-16T17:37:28;98434.31;;;0.15;100.00
49947;BME280;35839;48.662;13.300;2023-02-16T17:39:55;98432.03;;;0.07;100.00
49947;BME280;35839;48.662;13.300;2023-02-16T17:42:21;98441.03;;;0.19;100.00
49947;BME280;35839;48.662;13.300;2023-02-16T17:44:46;98437.53;;;-0.02;100.00
49947;BME280;35839;48.662;13.300;2023-02-16T17:47:13;98441.72;;;0.01;100.00
49947;BME280;35839;48.662;13.300;2023-02-16T17:49:39;98440.91;;;0.22;100.00
49947;BME280;35839;48.662;13.300;2023-02-16T17:52:09;98439.41;;;0.16;100.00
49947;BME280;35839;48.662;13.300;2023-02-16T17:54:35;98435.97;;;0.16;100.00
49947;BME280;35839;48.662;13.300;2023-02-16T17:57:00;98430.28;;;0.08;100.00
49947;BME280;35839;48.662;13.300;2023-02-16T17:59:26;98438.50;;;-0.05;100.00
49947;BME280;35839;48.662;13.300;2023-02-16T18:01:51;98428.97;;;0.19;100.00
49947;BME280;35839;48.662;13.300;2023-02-16T18:04:16;98429.50;;;0.28;100.00
49947;BME280;35839;48.662;13.300;2023-02-16T18:06:41;98427.22;;;0.20;100.00
49947;BME280;35839;48.662;13.300;2023-02-16T18:09:08;98421.78;;;0.06;100.00
49947;BME280;35839;48.662;13.300;2023-02-16T18:11:36;98424.84;;;0.15;100.00
49947;BME280;35839;48.662;13.300;2023-02-16T18:14:01;98414.75;;;0.09;100.00
49947;BME280;35839;48.662;13.300;2023-02-16T18:16:26;98420.16;;;0.03;100.00
49947;BME280;35839;48.662;13.300;2023-02-16T18:18:52;98417.91;;;-0.05;100.00
49947;BME280;35839;48.662;13.300;2023-02-16T18:21:17;98418.84;;;0.15;100.00
49947;BME280;35839;48.662;13.300;2023-02-16T18:23:42;98423.78;;;-0.03;100.00
49947;BME280;35839;48.662;13.300;2023-02-16T18:26:14;98427.16;;;-0.01;100.00
49947;BME280;35839;48.662;13.300;2023-02-16T18:28:39;98431.31;;;0.04;100.00
49947;BME280;35839;48.662;13.300;2023-02-16T18:31:05;98432.00;;;-0.15;100.00
49947;BME280;35839;48.662;13.300;2023-02-16T18:33:32;98432.25;;;0.01;100.00
49947;BME280;35839;48.662;13.300;2023-02-16T18:35:58;98430.94;;;-0.09;100.00
49947;BME280;35839;48.662;13.300;2023-02-16T18:38:23;98431.88;;;-0.35;100.00
49947;BME280;35839;48.662;13.300;2023-02-16T18:40:51;98425.41;;;-0.22;100.00
49947;BME280;35839;48.662;13.300;2023-02-16T18:43:17;98429.41;;;-0.15;100.00
49947;BME280;35839;48.662;13.300;2023-02-16T18:45:42;98427.28;;;-0.04;100.00
49947;BME280;35839;48.662;13.300;2023-02-16T18:48:08;98438.38;;;-0.02;100.00
49947;BME280;35839;48.662;13.300;2023-02-16T18:50:33;98431.78;;;-0.09;100.00
49947;BME280;35839;48.662;13.300;2023-02-16T18:52:59;98421.66;;;0.09;100.00
49947;BME280;35839;48.662;13.300;2023-02-16T18:55:25;98423.63;;;0.02;100.00
49947;BME280;35839;48.662;13.300;2023-02-16T18:57:52;98427.06;;;0.03;100.00
49947;BME280;35839;48.662;13.300;2023-02-16T19:00:17;98419.16;;;0.07;100.00
49947;BME280;35839;48.662;13.300;2023-02-16T19:02:45;98421.09;;;-0.22;100.00
49947;BME280;35839;48.662;13.300;2023-02-16T19:05:11;98421.13;;;0.01;100.00
49947;BME280;35839;48.662;13.300;2023-02-16T19:07:36;98426.63;;;-0.09;100.00
49947;BME280;35839;48.662;13.300;2023-02-16T19:10:03;98418.28;;;0.07;100.00
49947;BME280;35839;48.662;13.300;2023-02-16T19:12:28;98418.28;;;0.07;100.00
49947;BME280;35839;48.662;13.300;2023-02-16T19:14:54;98416.53;;;-0.15;100.00
49947;BME280;35839;48.662;13.300;2023-02-16T19:17:19;98420.69;;;-0.11;100.00
49947;BME280;35839;48.662;13.300;2023-02-16T19:19:45;98412.97;;;-0.11;100.00
49947;BME280;35839;48.662;13.300;2023-02-16T19:22:10;98419.91;;;-0.13;100.00
49947;BME280;35839;48.662;13.300;2023-02-16T19:24:36;98416.09;;;-0.26;100.00
49947;BME280;35839;48.662;13.300;2023-02-16T19:27:01;98420.25;;;-0.22;100.00
49947;BME280;35839;48.662;13.300;2023-02-16T19:29:27;98415.41;;;-0.30;100.00
49947;BME280;35839;48.662;13.300;2023-02-16T19:31:52;98418.81;;;-0.29;100.00
49947;BME280;35839;48.662;13.300;2023-02-16T19:34:17;98415.66;;;-0.14;100.00
49947;BME280;35839;48.662;13.300;2023-02-16T19:36:42;98412.41;;;-0.19;100.00
49947;BME280;35839;48.662;13.300;2023-02-16T19:39:08;98413.94;;;-0.13;100.00
49947;BME280;35839;48.662;13.300;2023-02-16T19:41:37;98426.13;;;-0.18;100.00
49947;BME280;35839;48.662;13.300;2023-02-16T19:44:02;98423.50;;;-0.17;100.00
49947;BME280;35839;48.662;13.300;2023-02-16T19:46:29;98416.91;;;-0.24;100.00
49947;BME280;35839;48.662;13.300;2023-02-16T19:48:56;98408.66;;;-0.10;100.00
49947;BME280;35839;48.662;13.300;2023-02-16T19:51:22;98412.88;;;-0.31;100.00
49947;BME280;35839;48.662;13.300;2023-02-16T19:53:47;98401.09;;;-0.15;100.00
49947;BME280;35839;48.662;13.300;2023-02-16T19:56:15;98398.22;;;-0.07;100.00
49947;BME280;35839;48.662;13.300;2023-02-16T19:58:41;98399.97;;;-0.08;100.00
49947;BME280;35839;48.662;13.300;2023-02-16T20:01:15;98397.41;;;-0.08;100.00
49947;BME280;35839;48.662;13.300;2023-02-16T20:03:42;98406.13;;;-0.12;100.00
49947;BME280;35839;48.662;13.300;2023-02-16T20:06:16;98401.75;;;-0.10;100.00
49947;BME280;35839;48.662;13.300;2023-02-16T20:08:42;98397.38;;;-0.30;100.00
49947;BME280;35839;48.662;13.300;2023-02-16T20:11:08;98398.69;;;-0.19;100.00
49947;BME280;35839;48.662;13.300;2023-02-16T20:13:34;98400.34;;;-0.40;100.00
49947;BME280;35839;48.662;13.300;2023-02-16T20:16:01;98414.22;;;-0.45;100.00
49947;BME280;35839;48.662;13.300;2023-02-16T20:18:26;98415.41;;;-0.53;100.00
49947;BME280;35839;48.662;13.300;2023-02-16T20:21:12;98407.25;;;-0.65;100.00
49947;BME280;35839;48.662;13.300;2023-02-16T20:23:37;98408.22;;;-0.45;100.00
49947;BME280;35839;48.662;13.300;2023-02-16T20:26:08;98405.63;;;-0.44;100.00
49947;BME280;35839;48.662;13.300;2023-02-16T20:28:34;98399.47;;;-0.39;100.00
49947;BME280;35839;48.662;13.300;2023-02-16T20:31:00;98402.53;;;-0.53;100.00
49947;BME280;35839;48.662;13.300;2023-02-16T20:33:26;98391.63;;;-0.60;100.00